Time;durP1;ratioP1;P1;durP2;ratioP2;P2;SDS_P1;SDS_P2;PMS_P1;PMS_P2;Temp;Humidity;BMP_temperature;BMP_pressure;BME280_temperature;BME280_humidity;BME280_pressure;Samples;Min_cycle;Max_cycle;Signal;HPM_P1;HPM_P2
2023/03/07 00:01:41;;;;;;;0.43;0.43;;;;;;;9.45;71.31;99766.66;5032473;28;20030;-65
2023/03/07 00:04:07;;;;;;;0.30;0.30;;;;;;;10.36;69.17;99760.75;5032567;28;20048;-63
2023/03/07 00:06:33;;;;;;;0.30;0.30;;;;;;;9.53;69.90;99766.25;5032358;28;20030;-63
2023/03/07 00:09:00;;;;;;;0.30;0.30;;;;;;;9.88;69.53;99768.69;5032340;28;20104;-62
2023/03/07 00:11:26;;;;;;;0.30;0.30;;;;;;;10.00;69.10;99769.38;5032732;28;20025;-63
2023/03/07 00:13:52;;;;;;;0.30;0.30;;;;;;;9.91;69.40;99761.97;5032359;28;20112;-65
2023/03/07 00:16:20;;;;;;;0.30;0.30;;;;;;;9.85;69.67;99763.00;5027595;28;20067;-64
2023/03/07 00:18:46;;;;;;;0.30;0.30;;;;;;;9.99;69.63;99767.75;5027001;28;20117;-62
2023/03/07 00:21:15;;;;;;;0.38;0.38;;;;;;;10.35;69.03;99767.19;5032786;28;20514;-65
2023/03/07 00:23:42;;;;;;;0.30;0.30;;;;;;;10.61;67.10;99761.03;5016259;28;20500;-64
2023/03/07 00:26:11;;;;;;;0.50;0.50;;;;;;;10.35;67.37;99758.31;5029110;28;20464;-63
2023/03/07 00:28:37;;;;;;;0.38;0.38;;;;;;;10.23;68.56;99766.50;5014128;28;20058;-64
2023/03/07 00:31:05;;;;;;;0.40;0.40;;;;;;;9.47;71.54;99761.88;5019118;28;20545;-63
2023/03/07 00:33:31;;;;;;;0.32;0.32;;;;;;;10.00;69.50;99764.03;5029055;28;20044;-62
2023/03/07 00:36:02;;;;;;;0.20;0.20;;;;;;;10.24;69.70;99761.94;5017129;28;20038;-63
2023/03/07 00:38:29;;;;;;;0.30;0.30;;;;;;;10.81;68.36;99763.13;5024213;28;20239;-63
2023/03/07 00:41:05;;;;;;;0.40;0.40;;;;;;;10.72;67.14;99767.34;5025205;28;20037;-63
2023/03/07 00:43:31;;;;;;;0.40;0.40;;;;;;;10.13;70.34;99776.28;5020743;28;20040;-64
2023/03/07 00:45:57;;;;;;;0.20;0.20;;;;;;;10.55;67.45;99775.47;5017053;28;20029;-63
2023/03/07 00:48:23;;;;;;;0.20;0.20;;;;;;;9.68;71.53;99769.19;5031963;28;20612;-64
2023/03/07 00:50:49;;;;;;;0.30;0.30;;;;;;;9.65;71.01;99764.28;5032167;28;20281;-63
2023/03/07 00:53:15;;;;;;;0.20;0.20;;;;;;;8.98;73.37;99772.56;5033035;28;20031;-64
2023/03/07 00:55:40;;;;;;;0.20;0.20;;;;;;;9.06;71.85;99772.16;5014632;28;20037;-64
2023/03/07 00:58:05;;;;;;;0.30;0.30;;;;;;;9.26;70.38;99772.50;5031927;28;20046;-63
2023/03/07 01:00:31;;;;;;;0.20;0.20;;;;;;;9.74;69.29;99764.72;5032400;28;20042;-64
2023/03/07 01:02:57;;;;;;;0.50;0.50;;;;;;;9.59;69.63;99759.91;5032133;28;20034;-64
2023/03/07 01:05:22;;;;;;;0.20;0.20;;;;;;;9.45;69.23;99768.53;5032355;28;20033;-64
2023/03/07 01:07:48;;;;;;;0.22;0.22;;;;;;;9.31;69.77;99757.34;5031747;28;20033;-64
2023/03/07 01:10:13;;;;;;;0.20;0.20;;;;;;;9.15;69.57;99757.31;5032090;28;20042;-63
2023/03/07 01:12:39;;;;;;;0.20;0.20;;;;;;;9.18;69.43;99744.22;5031929;28;20057;-63
2023/03/07 01:15:05;;;;;;;0.32;0.32;;;;;;;8.26;73.40;99747.31;5031921;28;20132;-63
2023/03/07 01:17:32;;;;;;;0.40;0.40;;;;;;;8.91;70.87;99748.59;5032316;28;20026;-63
2023/03/07 01:19:57;;;;;;;0.30;0.30;;;;;;;9.11;70.05;99742.78;5031535;28;20401;-65
2023/03/07 01:22:22;;;;;;;0.25;0.25;;;;;;;8.69;71.83;99742.28;5031758;28;20061;-63
2023/03/07 01:24:48;;;;;;;0.32;0.32;;;;;;;8.78;71.71;99740.84;5031691;28;20044;-63
2023/03/07 01:27:13;;;;;;;0.20;0.20;;;;;;;9.29;69.12;99739.88;5031539;28;20041;-64
2023/03/07 01:29:38;;;;;;;0.30;0.30;;;;;;;8.88;70.61;99735.69;5032217;28;20331;-63
2023/03/07 01:32:04;;;;;;;0.30;0.30;;;;;;;8.90;70.85;99732.75;5031714;28;20063;-63
2023/03/07 01:34:29;;;;;;;0.30;0.30;;;;;;;8.80;70.72;99728.03;5030712;28;20036;-64
2023/03/07 01:36:55;;;;;;;0.20;0.20;;;;;;;8.99;69.85;99724.09;5031233;28;20095;-64
2023/03/07 01:39:20;;;;;;;0.20;0.20;;;;;;;8.86;71.16;99725.19;5031597;28;20124;-62
2023/03/07 01:41:46;;;;;;;0.20;0.20;;;;;;;8.73;72.57;99716.66;5031299;28;20108;-65
2023/03/07 01:44:24;;;;;;;0.30;0.30;;;;;;;9.06;70.45;99715.91;5014034;28;20030;-62
2023/03/07 01:46:52;;;;;;;0.30;0.30;;;;;;;9.35;69.45;99715.59;5031151;28;20041;-64
2023/03/07 01:49:31;;;;;;;0.20;0.20;;;;;;;8.99;70.14;99709.88;5031070;28;20072;-62
2023/03/07 01:52:16;;;;;;;0.30;0.30;;;;;;;10.10;67.93;99704.31;5031000;28;20512;-65
2023/03/07 01:54:47;;;;;;;0.30;0.30;;;;;;;9.57;68.46;99700.34;5031320;28;20042;-63
2023/03/07 01:57:14;;;;;;;0.30;0.30;;;;;;;9.38;68.07;99693.63;5031374;28;20424;-64
2023/03/07 01:59:44;;;;;;;0.40;0.40;;;;;;;9.01;68.89;99705.06;5031501;28;20017;-64
2023/03/07 02:02:15;;;;;;;0.28;0.28;;;;;;;9.46;68.83;99701.25;5031145;28;20034;-64
2023/03/07 02:05:00;;;;;;;0.30;0.30;;;;;;;10.07;66.67;99700.22;5030965;28;20034;-63
2023/03/07 02:07:30;;;;;;;0.20;0.20;;;;;;;9.41;67.07;99700.38;5030837;28;20404;-63
2023/03/07 02:09:57;;;;;;;0.30;0.30;;;;;;;9.43;66.74;99696.41;5030935;28;20052;-65
2023/03/07 02:12:22;;;;;;;0.20;0.20;;;;;;;9.79;65.95;99700.38;5030936;28;20038;-64
2023/03/07 02:14:49;;;;;;;0.45;0.45;;;;;;;10.20;64.13;99693.72;5030668;28;20025;-64
2023/03/07 02:17:15;;;;;;;0.30;0.30;;;;;;;9.32;67.20;99699.97;5031423;28;20065;-64
2023/03/07 02:19:57;;;;;;;0.25;0.25;;;;;;;9.43;67.77;99688.34;5030487;28;20068;-63
2023/03/07 02:22:24;;;;;;;0.40;0.40;;;;;;;9.20;68.23;99688.50;5009280;28;20038;-64
2023/03/07 02:25:02;;;;;;;0.30;0.30;;;;;;;9.26;69.09;99690.22;5011018;28;20042;-64
2023/03/07 02:27:31;;;;;;;0.20;0.20;;;;;;;8.52;70.53;99683.34;5024665;28;20107;-63
2023/03/07 02:29:56;;;;;;;0.32;0.32;;;;;;;9.31;68.09;99671.56;5030487;28;20053;-66
2023/03/07 02:32:22;;;;;;;0.30;0.30;;;;;;;9.45;66.62;99682.75;5031172;28;20572;-64
2023/03/07 02:34:47;;;;;;;0.40;0.40;;;;;;;8.71;70.30;99681.25;5030854;28;20124;-64
2023/03/07 02:37:24;;;;;;;0.40;0.40;;;;;;;9.06;70.63;99689.09;5030357;28;20523;-64
2023/03/07 02:39:50;;;;;;;0.20;0.20;;;;;;;8.94;68.79;99675.78;5030422;28;20048;-64
2023/03/07 02:42:20;;;;;;;0.30;0.30;;;;;;;9.46;67.48;99676.31;5030103;28;20099;-65
2023/03/07 02:44:54;;;;;;;0.30;0.30;;;;;;;8.62;69.44;99674.69;5030508;28;20041;-63
2023/03/07 02:47:19;;;;;;;0.40;0.40;;;;;;;9.28;67.56;99672.03;5031030;28;20078;-64
2023/03/07 02:49:45;;;;;;;0.57;0.57;;;;;;;9.41;65.92;99677.06;5030241;28;20041;-64
2023/03/07 02:52:10;;;;;;;0.40;0.40;;;;;;;9.05;68.31;99679.41;5030502;28;20036;-63
2023/03/07 02:54:35;;;;;;;0.40;0.40;;;;;;;9.29;67.30;99670.16;5030349;28;20087;-66
2023/03/07 02:57:01;;;;;;;0.40;0.40;;;;;;;9.46;66.62;99663.72;5030213;28;20128;-65
2023/03/07 02:59:26;;;;;;;0.30;0.30;;;;;;;9.95;65.88;99671.88;5030769;28;20108;-63
2023/03/07 03:01:51;;;;;;;0.35;0.35;;;;;;;9.63;65.04;99672.53;5030463;28;20030;-64
2023/03/07 03:04:17;;;;;;;0.30;0.30;;;;;;;10.09;65.32;99673.13;5030414;28;20407;-65
2023/03/07 03:06:42;;;;;;;0.30;0.30;;;;;;;9.82;65.14;99664.19;5030283;28;20412;-64
2023/03/07 03:09:07;;;;;;;0.30;0.30;;;;;;;9.15;67.75;99668.88;5012176;28;20110;-63
2023/03/07 03:11:33;;;;;;;0.30;0.30;;;;;;;10.05;65.41;99675.50;5030872;28;20033;-64
2023/03/07 03:13:58;;;;;;;0.30;0.30;;;;;;;8.98;67.76;99673.44;5030168;28;20056;-63
2023/03/07 03:16:23;;;;;;;0.47;0.47;;;;;;;9.15;68.52;99667.00;5030236;28;20112;-64
2023/03/07 03:18:49;;;;;;;0.32;0.32;;;;;;;8.97;68.90;99669.94;5030020;28;20113;-62
2023/03/07 03:21:14;;;;;;;0.30;0.30;;;;;;;9.30;66.67;99664.56;5029897;28;20033;-64
2023/03/07 03:23:40;;;;;;;0.20;0.20;;;;;;;9.33;66.75;99672.13;5028710;28;20125;-63
2023/03/07 03:26:10;;;;;;;0.20;0.20;;;;;;;9.94;64.70;99678.31;5029768;28;20761;-65
2023/03/07 03:28:37;;;;;;;0.30;0.30;;;;;;;9.38;66.26;99672.19;5029932;28;20464;-64
2023/03/07 03:31:14;;;;;;;0.35;0.35;;;;;;;9.63;65.46;99663.69;5030010;28;20034;-63
2023/03/07 03:33:40;;;;;;;0.52;0.52;;;;;;;8.84;66.91;99672.94;5030011;28;20040;-64
2023/03/07 03:36:09;;;;;;;0.30;0.30;;;;;;;9.71;65.05;99663.25;5012102;28;20030;-64
2023/03/07 03:38:35;;;;;;;0.20;0.20;;;;;;;9.43;65.15;99661.56;5030359;28;20100;-64
2023/03/07 03:41:04;;;;;;;0.45;0.45;;;;;;;9.10;67.74;99656.19;5029802;28;20038;-67
2023/03/07 03:43:29;;;;;;;0.20;0.20;;;;;;;9.55;65.92;99648.81;5029909;28;20042;-64
2023/03/07 03:45:56;;;;;;;0.20;0.20;;;;;;;9.37;65.95;99654.50;5029981;28;20428;-64
2023/03/07 03:48:22;;;;;;;0.30;0.30;;;;;;;10.17;62.96;99668.16;5029774;28;20049;-65
2023/03/07 03:50:47;;;;;;;0.35;0.35;;;;;;;9.91;63.98;99658.16;5029827;28;20108;-64
2023/03/07 03:53:13;;;;;;;0.30;0.30;;;;;;;9.85;65.13;99661.03;5030336;28;20084;-63
2023/03/07 03:55:38;;;;;;;0.32;0.32;;;;;;;9.14;66.79;99661.91;5029987;28;20038;-63
2023/03/07 03:58:03;;;;;;;0.30;0.30;;;;;;;9.37;64.78;99651.81;5031299;28;20450;-63
2023/03/07 04:00:29;;;;;;;0.30;0.30;;;;;;;9.99;63.97;99654.22;5033131;28;20517;-63
2023/03/07 04:02:55;;;;;;;0.40;0.40;;;;;;;9.63;63.37;99652.97;5033248;28;20037;-64
2023/03/07 04:05:20;;;;;;;0.30;0.30;;;;;;;9.82;62.11;99665.03;5033963;28;20030;-62
2023/03/07 04:07:47;;;;;;;0.30;0.30;;;;;;;9.90;61.73;99653.84;5032874;28;20048;-65
2023/03/07 04:10:12;;;;;;;0.20;0.20;;;;;;;9.74;62.06;99652.84;5032854;28;20269;-64
2023/03/07 04:12:37;;;;;;;0.20;0.20;;;;;;;9.02;63.33;99647.78;5033316;28;20122;-65
2023/03/07 04:15:04;;;;;;;0.30;0.30;;;;;;;9.52;62.07;99646.66;5033309;28;20049;-64
2023/03/07 04:17:29;;;;;;;0.30;0.30;;;;;;;9.49;61.78;99647.13;5033722;28;20034;-64
2023/03/07 04:19:55;;;;;;;0.32;0.32;;;;;;;9.60;61.48;99653.44;5032976;28;20134;-63
2023/03/07 04:22:20;;;;;;;0.30;0.30;;;;;;;9.50;60.17;99643.41;5016313;28;20049;-63
2023/03/07 04:24:46;;;;;;;0.40;0.40;;;;;;;9.24;61.74;99640.59;5013158;28;20066;-63
2023/03/07 04:27:11;;;;;;;0.30;0.30;;;;;;;8.73;62.72;99647.84;5024359;28;20033;-62
2023/03/07 04:29:36;;;;;;;0.30;0.30;;;;;;;8.94;61.84;99645.50;5033122;28;20052;-64
2023/03/07 04:32:02;;;;;;;0.30;0.30;;;;;;;8.67;63.32;99654.16;5032665;28;20045;-66
2023/03/07 04:34:27;;;;;;;0.35;0.35;;;;;;;9.52;60.97;99643.16;5032304;28;20118;-64
2023/03/07 04:36:52;;;;;;;0.20;0.20;;;;;;;8.91;63.11;99645.97;5032548;28;20489;-64
2023/03/07 04:39:18;;;;;;;0.22;0.22;;;;;;;8.98;62.59;99636.72;5032645;28;20072;-63
2023/03/07 04:41:43;;;;;;;0.30;0.30;;;;;;;9.31;62.87;99635.88;5014009;28;20041;-63
2023/03/07 04:44:08;;;;;;;0.20;0.20;;;;;;;9.21;62.58;99639.22;5033421;28;20273;-63
2023/03/07 04:46:34;;;;;;;0.30;0.30;;;;;;;9.18;61.41;99637.03;5032772;28;20043;-65
2023/03/07 04:48:59;;;;;;;0.30;0.30;;;;;;;9.24;62.76;99633.38;5032662;28;20397;-63
2023/03/07 04:51:25;;;;;;;0.30;0.30;;;;;;;9.17;62.75;99638.09;5032723;28;20037;-63
2023/03/07 04:53:50;;;;;;;0.20;0.20;;;;;;;9.93;60.36;99637.25;5032240;28;20040;-63
2023/03/07 04:56:16;;;;;;;0.30;0.30;;;;;;;9.40;62.53;99621.81;5033212;28;20108;-63
2023/03/07 04:58:42;;;;;;;0.30;0.30;;;;;;;8.90;63.61;99628.28;5031895;28;20065;-64
2023/03/07 05:01:08;;;;;;;0.30;0.30;;;;;;;9.38;61.82;99615.88;5031505;28;20037;-63
2023/03/07 05:03:34;;;;;;;0.22;0.22;;;;;;;9.77;61.75;99617.47;5031751;28;20342;-65
2023/03/07 05:06:02;;;;;;;0.28;0.28;;;;;;;9.02;63.07;99619.09;5031857;28;20079;-63
2023/03/07 05:08:27;;;;;;;0.32;0.32;;;;;;;9.42;63.81;99617.00;5031382;28;20513;-64
2023/03/07 05:10:52;;;;;;;0.30;0.30;;;;;;;9.44;62.27;99619.44;5031652;28;20124;-68
2023/03/07 05:13:17;;;;;;;0.30;0.30;;;;;;;9.18;63.21;99615.59;5031717;28;20057;-63
2023/03/07 05:15:43;;;;;;;0.38;0.38;;;;;;;9.43;62.84;99624.00;5025513;28;20125;-64
2023/03/07 05:18:08;;;;;;;0.22;0.22;;;;;;;9.55;61.34;99627.38;5011914;28;20042;-65
2023/03/07 05:20:34;;;;;;;0.45;0.45;;;;;;;9.95;60.59;99626.25;5012233;28;20520;-64
2023/03/07 05:22:59;;;;;;;0.40;0.40;;;;;;;8.70;63.96;99620.72;5011883;28;20125;-63
2023/03/07 05:25:24;;;;;;;0.25;0.25;;;;;;;8.76;63.95;99617.91;5011821;28;20494;-64
2023/03/07 05:27:50;;;;;;;0.40;0.40;;;;;;;9.57;60.87;99611.84;5028945;28;20053;-63
2023/03/07 05:30:16;;;;;;;0.30;0.30;;;;;;;10.09;60.63;99609.53;5031252;28;20048;-64
2023/03/07 05:32:41;;;;;;;0.25;0.25;;;;;;;9.85;60.03;99607.38;5032101;28;20107;-65
2023/03/07 05:35:09;;;;;;;0.30;0.30;;;;;;;9.95;58.79;99613.66;5031459;28;20037;-65
2023/03/07 05:37:34;;;;;;;0.20;0.20;;;;;;;9.98;60.29;99612.34;5029142;28;20228;-64
2023/03/07 05:40:00;;;;;;;0.30;0.30;;;;;;;10.01;60.00;99609.16;5026630;28;20045;-63
2023/03/07 05:42:25;;;;;;;0.22;0.22;;;;;;;9.43;60.54;99618.66;5029963;28;20048;-65
2023/03/07 05:44:50;;;;;;;0.20;0.20;;;;;;;9.33;60.70;99615.00;5030091;28;20032;-65
2023/03/07 05:47:16;;;;;;;0.30;0.30;;;;;;;9.15;61.22;99616.09;5030612;28;20100;-63
2023/03/07 05:49:41;;;;;;;0.20;0.20;;;;;;;9.59;60.23;99614.28;5029890;28;20136;-64
2023/03/07 05:52:07;;;;;;;0.40;0.40;;;;;;;9.92;59.66;99622.22;5029622;28;20128;-64
2023/03/07 05:54:32;;;;;;;0.28;0.28;;;;;;;9.12;59.96;99611.19;5030140;28;20048;-64
2023/03/07 05:56:57;;;;;;;0.20;0.20;;;;;;;9.30;61.29;99616.31;5029479;28;20100;-65
2023/03/07 05:59:23;;;;;;;0.22;0.22;;;;;;;9.01;61.61;99622.00;4995420;28;20124;-63
2023/03/07 06:01:48;;;;;;;0.43;0.43;;;;;;;10.16;59.21;99628.94;5026770;28;20520;-65
2023/03/07 06:04:13;;;;;;;0.30;0.30;;;;;;;9.31;60.38;99623.28;5029796;28;20087;-66
2023/03/07 06:06:39;;;;;;;0.20;0.20;;;;;;;10.28;59.26;99624.25;5013981;28;20500;-63
2023/03/07 06:09:04;;;;;;;0.22;0.22;;;;;;;10.28;59.80;99624.25;5022708;28;20402;-64
2023/03/07 06:11:31;;;;;;;0.28;0.28;;;;;;;10.42;58.37;99622.78;5031143;28;20025;-63
2023/03/07 06:13:56;;;;;;;0.20;0.20;;;;;;;10.19;58.65;99631.16;5030907;28;20094;-63
2023/03/07 06:16:21;;;;;;;0.30;0.30;;;;;;;9.22;60.79;99632.78;5019245;28;20038;-64
2023/03/07 06:18:47;;;;;;;0.30;0.30;;;;;;;9.28;62.02;99631.00;5011050;28;20129;-65
2023/03/07 06:21:16;;;;;;;0.30;0.30;;;;;;;9.59;60.77;99633.06;5010469;28;20520;-63
2023/03/07 06:23:41;;;;;;;0.28;0.28;;;;;;;9.21;61.26;99636.56;5011140;28;20026;-63
2023/03/07 06:26:07;;;;;;;0.30;0.30;;;;;;;7.86;64.04;99637.59;5017367;28;20034;-63
2023/03/07 06:28:33;;;;;;;0.30;0.30;;;;;;;9.10;60.95;99639.31;5030436;28;20056;-63
2023/03/07 06:30:59;;;;;;;0.28;0.28;;;;;;;9.01;62.29;99648.81;5028015;28;20048;-64
2023/03/07 06:33:24;;;;;;;0.30;0.30;;;;;;;8.30;63.22;99650.25;5029958;28;20037;-64
2023/03/07 06:35:50;;;;;;;0.30;0.30;;;;;;;8.15;64.27;99655.31;5030768;28;20104;-63
2023/03/07 06:38:16;;;;;;;0.30;0.30;;;;;;;8.36;65.32;99648.50;5031241;28;20412;-63
2023/03/07 06:40:42;;;;;;;0.32;0.32;;;;;;;8.37;64.77;99650.91;5029504;28;20414;-64
2023/03/07 06:43:08;;;;;;;0.30;0.30;;;;;;;7.66;67.68;99658.56;5030108;28;20116;-64
2023/03/07 06:45:34;;;;;;;0.30;0.30;;;;;;;8.05;68.22;99659.63;5029845;28;20113;-63
2023/03/07 06:47:59;;;;;;;0.30;0.30;;;;;;;8.11;68.66;99651.47;5029861;28;20025;-63
2023/03/07 06:50:24;;;;;;;0.38;0.38;;;;;;;8.16;67.08;99656.91;5030430;28;20030;-64
2023/03/07 06:52:50;;;;;;;0.20;0.20;;;;;;;8.49;66.03;99662.38;5029976;28;20041;-65
2023/03/07 06:55:18;;;;;;;0.30;0.30;;;;;;;7.99;68.29;99658.72;5029943;28;20065;-64
2023/03/07 06:57:43;;;;;;;0.40;0.40;;;;;;;8.27;67.80;99669.50;5027007;28;20041;-66
2023/03/07 07:00:10;;;;;;;0.32;0.32;;;;;;;8.44;66.98;99664.16;5027906;28;20040;-66
2023/03/07 07:02:35;;;;;;;0.30;0.30;;;;;;;7.96;67.37;99669.88;5030085;28;20116;-64
2023/03/07 07:05:01;;;;;;;0.45;0.45;;;;;;;8.01;67.87;99683.38;5029792;28;20053;-65
2023/03/07 07:07:27;;;;;;;0.35;0.35;;;;;;;7.99;68.55;99680.13;5029594;28;20037;-64
2023/03/07 07:09:52;;;;;;;0.32;0.32;;;;;;;7.60;69.13;99673.69;5024273;28;20046;-66
2023/03/07 07:12:18;;;;;;;0.30;0.30;;;;;;;7.97;66.81;99682.22;5019874;28;20085;-64
2023/03/07 07:14:43;;;;;;;0.40;0.40;;;;;;;7.58;68.64;99689.16;5025617;28;20037;-65
2023/03/07 07:17:09;;;;;;;0.40;0.40;;;;;;;8.01;67.85;99688.72;5019893;28;20042;-65
2023/03/07 07:19:35;;;;;;;0.30;0.30;;;;;;;8.25;65.96;99701.03;5012818;28;20107;-65
2023/03/07 07:22:00;;;;;;;0.40;0.40;;;;;;;8.05;67.06;99689.88;5017951;28;20405;-66
2023/03/07 07:24:26;;;;;;;0.30;0.30;;;;;;;7.77;67.73;99695.97;5025832;28;20046;-66
2023/03/07 07:26:51;;;;;;;0.40;0.40;;;;;;;7.75;69.13;99687.38;5024168;28;20025;-67
2023/03/07 07:29:16;;;;;;;0.40;0.40;;;;;;;8.27;66.84;99693.59;5030728;28;20033;-64
2023/03/07 07:31:42;;;;;;;0.38;0.38;;;;;;;7.60;69.75;99689.75;5029959;28;20505;-66
2023/03/07 07:34:07;;;;;;;0.20;0.20;;;;;;;7.59;69.73;99689.94;5031375;28;20071;-67
2023/03/07 07:36:33;;;;;;;0.30;0.30;;;;;;;7.47;70.19;99684.59;5032101;28;20127;-66
2023/03/07 07:39:04;;;;;;;0.30;0.30;;;;;;;8.02;69.63;99691.16;5033607;28;20053;-66
2023/03/07 07:41:29;;;;;;;0.30;0.30;;;;;;;8.25;68.93;99681.47;5034310;28;20025;-66
2023/03/07 07:43:55;;;;;;;0.40;0.40;;;;;;;8.48;67.85;99686.72;5033820;28;20525;-65
2023/03/07 07:46:20;;;;;;;0.30;0.30;;;;;;;8.48;67.16;99689.41;5033873;28;20033;-66
2023/03/07 07:48:47;;;;;;;0.40;0.40;;;;;;;8.29;67.71;99693.34;5033299;28;20124;-64
2023/03/07 07:51:12;;;;;;;0.30;0.30;;;;;;;8.47;68.01;99685.91;5033924;28;20033;-65
2023/03/07 07:53:37;;;;;;;0.30;0.30;;;;;;;9.21;64.92;99690.16;5033785;28;20504;-65
2023/03/07 07:56:03;;;;;;;0.30;0.30;;;;;;;8.28;68.29;99689.84;5033273;28;20045;-65
2023/03/07 07:58:28;;;;;;;0.28;0.28;;;;;;;8.57;65.88;99694.13;5034027;28;20528;-67
2023/03/07 08:00:53;;;;;;;0.30;0.30;;;;;;;8.96;66.08;99689.75;5022309;28;20116;-65
2023/03/07 08:03:19;;;;;;;0.32;0.32;;;;;;;8.83;66.18;99685.50;5013355;28;20446;-65
2023/03/07 08:05:47;;;;;;;0.22;0.22;;;;;;;8.84;65.86;99680.97;5013614;28;20030;-64
2023/03/07 08:08:16;;;;;;;0.20;0.20;;;;;;;7.70;68.83;99679.28;5013792;28;20371;-65
2023/03/07 08:10:43;;;;;;;0.30;0.30;;;;;;;8.43;66.09;99676.72;5013376;28;20041;-65
2023/03/07 08:13:12;;;;;;;0.35;0.35;;;;;;;7.41;70.28;99677.53;5013429;28;20057;-67
2023/03/07 08:15:37;;;;;;;0.30;0.30;;;;;;;8.34;67.29;99672.81;5018459;28;20025;-65
2023/03/07 08:18:02;;;;;;;0.30;0.30;;;;;;;9.07;64.49;99670.09;5033143;28;25536;-67
2023/03/07 08:20:28;;;;;;;0.30;0.30;;;;;;;8.71;66.80;99671.38;5032937;28;20481;-66
2023/03/07 08:22:54;;;;;;;0.38;0.38;;;;;;;9.22;65.52;99673.00;5032658;28;20067;-66
2023/03/07 08:25:23;;;;;;;0.30;0.30;;;;;;;8.57;67.89;99672.72;5032604;28;20033;-65
2023/03/07 08:27:54;;;;;;;0.40;0.40;;;;;;;8.93;65.79;99673.31;5032418;28;20068;-65
2023/03/07 08:30:25;;;;;;;0.40;0.40;;;;;;;8.88;66.58;99679.44;5032637;28;20088;-65
2023/03/07 08:32:54;;;;;;;0.25;0.25;;;;;;;9.03;65.64;99670.81;5032547;28;20033;-65
2023/03/07 08:35:20;;;;;;;0.43;0.43;;;;;;;8.36;68.73;99664.56;5033077;28;20025;-65
2023/03/07 08:37:47;;;;;;;0.40;0.40;;;;;;;8.03;70.24;99673.25;5032745;28;20034;-66
2023/03/07 08:40:15;;;;;;;0.30;0.30;;;;;;;8.58;67.99;99678.88;5032495;28;20079;-65
2023/03/07 08:42:41;;;;;;;0.30;0.30;;;;;;;8.02;68.98;99676.97;5032445;28;20029;-66
2023/03/07 08:45:07;;;;;;;0.30;0.30;;;;;;;8.83;66.96;99680.16;5032394;28;20133;-66
2023/03/07 08:47:32;;;;;;;0.40;0.40;;;;;;;8.73;67.51;99674.63;5032951;28;20108;-64
2023/03/07 08:49:57;;;;;;;0.30;0.30;;;;;;;8.48;67.45;99676.03;5032165;28;20045;-66
2023/03/07 08:52:23;;;;;;;0.30;0.30;;;;;;;8.44;69.29;99686.41;5032627;28;20052;-67
2023/03/07 08:54:48;;;;;;;0.40;0.40;;;;;;;8.33;68.11;99689.13;5032386;28;20034;-66
2023/03/07 08:57:13;;;;;;;0.30;0.30;;;;;;;9.13;67.03;99681.69;5032028;28;20088;-66
2023/03/07 08:59:39;;;;;;;0.30;0.30;;;;;;;8.81;67.78;99681.44;5032563;28;20070;-67
2023/03/07 09:02:05;;;;;;;0.30;0.30;;;;;;;8.72;66.63;99690.94;5031999;28;20041;-65
2023/03/07 09:04:30;;;;;;;0.45;0.45;;;;;;;8.14;66.82;99693.81;5031892;28;20091;-65
2023/03/07 09:06:57;;;;;;;0.40;0.40;;;;;;;8.90;67.72;99701.44;5032208;28;20556;-67
2023/03/07 09:09:23;;;;;;;0.30;0.30;;;;;;;8.60;69.25;99693.66;5014322;28;20124;-68
2023/03/07 09:11:48;;;;;;;0.40;0.40;;;;;;;8.40;68.02;99697.81;5031751;28;20083;-67
2023/03/07 09:14:14;;;;;;;0.43;0.43;;;;;;;8.56;67.18;99694.38;5032494;28;20089;-66
2023/03/07 09:16:39;;;;;;;0.30;0.30;;;;;;;9.28;65.43;99696.16;5031694;28;20049;-64
2023/03/07 09:19:04;;;;;;;0.30;0.30;;;;;;;8.43;68.52;99690.13;5031889;28;20037;-68
2023/03/07 09:21:30;;;;;;;0.38;0.38;;;;;;;8.83;68.04;99696.22;5031835;28;20057;-67
2023/03/07 09:23:56;;;;;;;0.30;0.30;;;;;;;9.80;64.29;99693.16;5031331;28;20063;-65
2023/03/07 09:26:21;;;;;;;0.30;0.30;;;;;;;9.34;65.40;99707.75;5027140;28;20022;-65
2023/03/07 09:28:47;;;;;;;0.40;0.40;;;;;;;9.95;64.07;99704.91;5011779;28;20042;-64
2023/03/07 09:31:13;;;;;;;0.32;0.32;;;;;;;9.45;65.54;99696.94;5011829;28;20509;-66
2023/03/07 09:33:39;;;;;;;0.30;0.30;;;;;;;9.01;64.90;99695.19;5011589;28;20045;-65
2023/03/07 09:36:06;;;;;;;0.30;0.30;;;;;;;9.51;64.33;99692.50;5011776;28;20351;-66
2023/03/07 09:38:33;;;;;;;0.40;0.40;;;;;;;10.02;63.61;99696.66;5012522;28;20075;-66
2023/03/07 09:41:09;;;;;;;0.40;0.40;;;;;;;9.89;64.17;99695.16;5012214;28;20034;-66
2023/03/07 09:43:46;;;;;;;0.40;0.40;;;;;;;10.14;62.90;99692.03;5011945;28;20065;-66
2023/03/07 09:46:30;;;;;;;0.47;0.47;;;;;;;10.05;62.23;99691.59;5011822;28;20038;-68
2023/03/07 09:49:03;;;;;;;0.57;0.57;;;;;;;9.70;63.86;99693.81;5011381;28;20038;-69
2023/03/07 09:51:40;;;;;;;0.30;0.30;;;;;;;10.04;62.95;99698.06;5011614;28;20053;-66
2023/03/07 09:54:16;;;;;;;0.30;0.30;;;;;;;10.54;61.23;99687.91;5011096;28;20037;-67
2023/03/07 09:56:50;;;;;;;0.30;0.30;;;;;;;10.12;62.76;99692.25;5011322;28;20485;-66
2023/03/07 09:59:35;;;;;;;0.40;0.40;;;;;;;11.06;61.34;99693.53;5011271;28;20541;-67
2023/03/07 10:02:38;;;;;;;0.20;0.20;;;;;;;10.84;61.47;99694.66;5011434;28;20301;-67
2023/03/07 10:05:21;;;;;;;0.47;0.47;;;;;;;9.51;64.08;99687.91;5011208;28;20038;-67
2023/03/07 10:07:47;;;;;;;0.25;0.25;;;;;;;9.53;65.70;99693.84;5010974;28;20066;-66
2023/03/07 10:10:23;;;;;;;0.38;0.38;;;;;;;10.77;62.21;99691.38;5011114;28;20069;-66
2023/03/07 10:13:08;;;;;;;0.45;0.45;;;;;;;10.26;63.33;99706.13;5026934;28;20048;-66
2023/03/07 10:15:46;;;;;;;0.45;0.45;;;;;;;10.94;61.98;99694.75;5030536;28;20042;-65
2023/03/07 10:18:31;;;;;;;0.32;0.32;;;;;;;9.89;64.04;99703.19;5030621;28;20041;-66
2023/03/07 10:21:37;;;;;;;0.30;0.30;;;;;;;11.40;59.38;99700.22;5030751;28;20429;-67
2023/03/07 10:24:44;;;;;;;0.22;0.22;;;;;;;11.52;59.59;99701.94;5030243;28;20374;-66
2023/03/07 10:27:12;;;;;;;0.30;0.30;;;;;;;10.74;60.41;99697.22;4938610;29;20203;-67
2023/03/07 10:29:58;;;;;;;0.30;0.30;;;;;;;10.85;60.82;99693.59;4931178;29;20054;-66
2023/03/07 10:32:39;;;;;;;0.50;0.50;;;;;;;10.27;61.82;99699.69;4931063;29;20055;-67
2023/03/07 10:35:10;;;;;;;0.30;0.30;;;;;;;10.61;60.91;99701.16;4930699;29;20047;-66
2023/03/07 10:37:39;;;;;;;;;;;;;;;10.30;61.44;99694.63;4931446;29;20048;-66
2023/03/07 10:40:05;;;;;;;0.45;0.45;;;;;;;10.18;61.91;99693.16;4930664;29;19982;-66
2023/03/07 10:42:35;;;;;;;0.30;0.30;;;;;;;9.73;63.29;99693.31;4930571;29;20121;-65
2023/03/07 10:45:01;;;;;;;0.45;0.45;;;;;;;10.43;61.72;99694.25;4930484;29;20043;-65
2023/03/07 10:47:27;;;;;;;0.20;0.20;;;;;;;10.27;62.82;99700.50;4930828;29;20068;-66
2023/03/07 10:50:29;;;;;;;0.30;0.30;;;;;;;10.32;60.26;99703.25;4930360;29;20044;-66
2023/03/07 10:52:59;;;;;;;0.30;0.30;;;;;;;9.90;59.82;99702.16;4911525;29;20033;-65
2023/03/07 10:55:37;;;;;;;0.43;0.43;;;;;;;9.52;61.02;99705.66;4911354;29;20428;-67
2023/03/07 10:58:25;;;;;;;0.22;0.22;;;;;;;10.50;58.67;99710.16;4911235;29;20079;-67
2023/03/07 11:00:58;;;;;;;0.40;0.40;;;;;;;10.45;60.05;99712.78;4911429;29;20413;-66
2023/03/07 11:03:38;;;;;;;0.43;0.43;;;;;;;10.76;59.02;99709.34;4935176;28;20058;-66
2023/03/07 11:06:04;;;;;;;0.20;0.20;;;;;;;10.66;58.81;99703.06;4969348;28;20046;-66
2023/03/07 11:08:34;;;;;;;0.40;0.40;;;;;;;10.85;59.00;99701.66;4983862;28;20100;-66
2023/03/07 11:11:03;;;;;;;0.20;0.20;;;;;;;11.03;58.28;99704.78;4992205;28;20038;-67
2023/03/07 11:13:30;;;;;;;0.40;0.40;;;;;;;10.33;59.71;99702.19;4992070;28;20039;-66
2023/03/07 11:16:15;;;;;;;0.20;0.20;;;;;;;10.66;58.99;99695.81;4991913;28;20034;-66
2023/03/07 11:18:42;;;;;;;0.30;0.30;;;;;;;11.35;56.59;99704.75;4991642;28;20038;-67
2023/03/07 11:21:31;;;;;;;0.40;0.40;;;;;;;9.97;58.21;99707.31;4992141;28;20038;-67
2023/03/07 11:23:59;;;;;;;0.30;0.30;;;;;;;10.86;55.48;99712.16;4991752;28;20403;-66
2023/03/07 11:26:25;;;;;;;0.20;0.20;;;;;;;10.84;54.91;99706.22;4992068;28;20513;-67
2023/03/07 11:29:09;;;;;;;0.30;0.30;;;;;;;11.44;55.24;99705.91;4978732;28;20113;-66
2023/03/07 11:32:03;;;;;;;0.30;0.30;;;;;;;11.15;55.81;99715.34;5014191;28;20062;-67
2023/03/07 11:34:55;;;;;;;0.25;0.25;;;;;;;10.15;58.06;99721.28;5012592;28;20045;-68
2023/03/07 11:37:33;;;;;;;0.30;0.30;;;;;;;9.95;60.16;99723.69;5014166;28;20443;-66
2023/03/07 11:40:24;;;;;;;0.20;0.20;;;;;;;10.07;61.70;99729.75;5013864;28;20042;-65
2023/03/07 11:43:12;;;;;;;0.40;0.40;;;;;;;9.01;62.67;99730.00;5013782;28;20486;-66
2023/03/07 11:46:14;;;;;;;0.50;0.50;;;;;;;9.32;61.06;99726.78;5013914;28;20373;-66